createdAt,value
2023-03-08T00:01:35.198Z,97889.78
2023-03-08T00:04:13.700Z,97883.73
2023-03-08T00:06:47.625Z,97888.70
2023-03-08T00:09:21.497Z,97893.62
2023-03-08T00:11:55.088Z,97894.41
2023-03-08T00:14:29.192Z,97895.30
2023-03-08T00:17:03.325Z,97891.08
2023-03-08T00:19:37.321Z,97889.55
2023-03-08T00:22:11.898Z,97894.71
2023-03-08T00:24:45.571Z,97891.30
2023-03-08T00:27:19.398Z,97896.23
2023-03-08T00:29:53.337Z,97877.80
2023-03-08T00:32:28.739Z,97895.96
2023-03-08T00:35:02.882Z,97900.89
2023-03-08T00:37:37.125Z,97892.46
2023-03-08T00:40:13.501Z,97896.76
2023-03-08T00:42:47.049Z,97895.07
2023-03-08T00:45:21.186Z,97900.23
2023-03-08T00:47:55.010Z,97902.94
2023-03-08T00:50:28.845Z,97897.78
2023-03-08T00:53:02.999Z,97896.09
2023-03-08T00:55:37.031Z,97898.64
2023-03-08T00:58:10.772Z,97897.78
2023-03-08T01:00:44.909Z,97896.89
2023-03-08T01:03:20.819Z,97889.42
2023-03-08T01:05:56.349Z,97897.13
2023-03-08T01:08:30.015Z,97899.59
2023-03-08T01:11:04.342Z,97902.28
2023-03-08T01:13:38.745Z,97895.50
2023-03-08T01:16:20.336Z,97900.59
2023-03-08T01:18:54.847Z,97897.98
2023-03-08T01:21:30.126Z,97901.19
2023-03-08T01:24:03.718Z,97898.41
2023-03-08T01:26:38.012Z,97891.50
2023-03-08T01:29:11.229Z,97883.80
2023-03-08T01:31:44.540Z,97882.16
2023-03-08T01:34:17.718Z,97876.34
2023-03-08T01:36:50.927Z,97877.50
2023-03-08T01:39:23.844Z,97870.79
2023-03-08T01:41:56.933Z,97869.20
2023-03-08T01:44:30.295Z,97871.62
2023-03-08T01:47:03.385Z,97862.06
2023-03-08T01:49:38.679Z,97866.36
2023-03-08T01:52:15.253Z,97872.24
2023-03-08T01:54:51.342Z,97873.86
2023-03-08T01:57:27.378Z,97871.02
2023-03-08T02:00:03.214Z,97866.66
2023-03-08T02:02:37.973Z,97874.29
2023-03-08T02:05:12.657Z,97875.91
2023-03-08T02:07:46.407Z,97878.22
2023-03-08T02:10:21.164Z,97886.64
2023-03-08T02:12:55.146Z,97881.55
2023-03-08T02:15:28.424Z,97877.36
2023-03-08T02:18:02.250Z,97886.70
2023-03-08T02:20:37.319Z,97888.63
2023-03-08T02:23:15.027Z,97892.89
2023-03-08T02:25:53.769Z,97885.33
2023-03-08T02:28:29.134Z,97882.95
2023-03-08T02:31:02.426Z,97881.20
2023-03-08T02:33:35.795Z,97887.08
2023-03-08T02:36:11.107Z,97881.20
2023-03-08T02:38:44.544Z,97886.41
2023-03-08T02:41:17.787Z,97882.95
2023-03-08T02:43:52.860Z,97881.26
2023-03-08T02:46:26.077Z,97888.10
2023-03-08T02:48:59.160Z,97888.33
2023-03-08T02:51:32.569Z,97874.79
2023-03-08T02:54:05.780Z,97875.68
2023-03-08T02:56:39.029Z,97878.95
2023-03-08T02:59:12.353Z,97881.43
2023-03-08T03:01:45.532Z,97877.20
2023-03-08T03:04:18.680Z,97884.03
2023-03-08T03:06:52.690Z,97884.03
2023-03-08T03:09:26.190Z,97888.96
2023-03-08T03:11:59.508Z,97884.47
2023-03-08T03:14:33.109Z,97878.45
2023-03-08T03:17:07.109Z,97882.58
2023-03-08T03:19:40.937Z,97880.89
2023-03-08T03:22:13.974Z,97875.97
2023-03-08T03:24:48.566Z,97866.59
2023-03-08T03:27:22.198Z,97864.11
2023-03-08T03:29:55.802Z,97862.43
2023-03-08T03:32:29.917Z,97864.84
2023-03-08T03:35:03.561Z,97869.92
2023-03-08T03:37:37.932Z,97877.48
2023-03-08T03:40:15.898Z,97873.92
2023-03-08T03:42:52.179Z,97873.00
2023-03-08T03:45:25.252Z,97880.28
2023-03-08T03:47:58.664Z,97877.37
2023-03-08T03:50:32.345Z,97881.36
2023-03-08T03:53:07.063Z,97887.23
2023-03-08T03:55:41.816Z,97890.42
2023-03-08T03:58:15.274Z,97887.72
2023-03-08T04:00:49.286Z,97884.24
2023-03-08T04:03:25.143Z,97885.03
2023-03-08T04:06:07.294Z,97879.23
2023-03-08T04:08:42.570Z,97879.23
2023-03-08T04:11:19.646Z,97878.37
2023-03-08T04:13:53.756Z,97875.66
2023-03-08T04:16:30.619Z,97872.97
2023-03-08T04:19:07.531Z,97871.88
2023-03-08T04:21:41.299Z,97879.19
2023-03-08T04:24:14.966Z,97893.19
2023-03-08T04:26:48.605Z,97879.12
2023-03-08T04:29:23.850Z,97879.63
2023-03-08T04:31:58.925Z,97884.47
2023-03-08T04:34:33.856Z,97882.42
2023-03-08T04:37:07.829Z,97885.50
2023-03-08T04:39:41.477Z,97887.71
2023-03-08T04:42:15.686Z,97895.58
2023-03-08T04:44:52.102Z,97891.69
2023-03-08T04:47:29.874Z,97885.89
2023-03-08T04:50:03.153Z,97893.98
2023-03-08T04:52:37.553Z,97893.66
2023-03-08T04:55:12.062Z,97890.78
2023-03-08T04:57:45.578Z,97892.03
2023-03-08T05:00:20.384Z,97899.97
2023-03-08T05:02:53.697Z,97905.95
2023-03-08T05:05:27.600Z,97897.60
2023-03-08T05:08:02.750Z,97903.20
2023-03-08T05:10:38.455Z,97906.71
2023-03-08T05:13:12.926Z,97905.89
2023-03-08T05:15:46.759Z,97906.98
2023-03-08T05:18:20.118Z,97898.09
2023-03-08T05:20:57.738Z,97899.08
2023-03-08T05:23:32.105Z,97904.30
2023-03-08T05:26:07.911Z,97908.22
2023-03-08T05:28:43.265Z,97916.88
2023-03-08T05:31:19.490Z,97916.80
2023-03-08T05:33:53.985Z,97913.61
2023-03-08T05:36:35.244Z,97916.73
2023-03-08T05:39:09.069Z,97905.53
2023-03-08T05:41:50.371Z,97910.69
2023-03-08T05:44:25.842Z,97901.98
2023-03-08T05:46:59.869Z,97927.48
2023-03-08T05:49:33.672Z,97926.14
2023-03-08T05:52:08.057Z,97931.66
2023-03-08T05:54:41.826Z,97916.02
2023-03-08T05:57:17.036Z,97926.41
2023-03-08T05:59:50.951Z,97919.13
2023-03-08T06:02:26.138Z,97927.91
2023-03-08T06:05:00.843Z,97923.17
2023-03-08T06:07:35.231Z,97913.28
2023-03-08T06:10:12.411Z,97919.23
2023-03-08T06:12:45.841Z,97913.28
2023-03-08T06:18:02.949Z,97913.17
2023-03-08T06:20:36.296Z,97916.17
2023-03-08T06:25:51.155Z,97910.88
2023-03-08T06:28:24.932Z,97915.05
2023-03-08T06:31:00.321Z,97922.24
2023-03-08T06:33:36.488Z,97899.77
2023-03-08T06:36:12.401Z,97912.84
2023-03-08T06:38:46.269Z,97911.95
2023-03-08T06:41:20.734Z,97901.52
2023-03-08T06:43:55.636Z,97900.91
2023-03-08T06:46:28.928Z,97890.99
2023-03-08T06:49:04.341Z,97872.81
2023-03-08T06:51:38.546Z,97873.88
2023-03-08T06:54:13.819Z,97868.49
2023-03-08T06:56:48.834Z,97861.61
2023-03-08T06:59:22.038Z,97848.62
2023-03-08T07:01:55.120Z,97831.89
2023-03-08T07:04:28.627Z,97823.23
2023-03-08T07:07:01.841Z,97810.34
2023-03-08T07:09:35.053Z,97797.83
2023-03-08T07:12:09.430Z,97799.13
2023-03-08T07:14:42.708Z,97779.39
2023-03-08T07:17:15.801Z,97778.54
2023-03-08T07:19:48.883Z,97787.00
2023-03-08T07:25:03.447Z,97774.44
2023-03-08T07:27:36.663Z,97776.61
2023-03-08T07:30:13.842Z,97732.00
2023-03-08T07:32:47.890Z,97778.25
2023-03-08T07:35:21.609Z,97783.78
2023-03-08T07:37:55.945Z,97791.17
2023-03-08T07:40:29.925Z,97774.04
2023-03-08T07:43:03.283Z,97789.91
2023-03-08T07:45:43.803Z,97782.08
2023-03-08T07:48:17.402Z,97787.18
2023-03-08T07:50:50.640Z,97777.33
2023-03-08T07:53:23.882Z,97768.59
2023-03-08T07:55:58.578Z,97768.69
2023-03-08T07:58:32.264Z,97754.34
2023-03-08T08:01:10.430Z,97739.63
2023-03-08T08:03:43.901Z,97756.40
2023-03-08T08:06:17.497Z,97739.32
2023-03-08T08:08:50.837Z,97727.38
2023-03-08T08:11:24.602Z,97716.94
2023-03-08T08:13:57.928Z,97726.09
2023-03-08T08:16:31.019Z,97727.17
2023-03-08T08:19:04.379Z,97736.05
2023-03-08T08:21:37.543Z,97720.30
2023-03-08T08:24:11.950Z,97720.71
2023-03-08T08:26:45.521Z,97733.33
2023-03-08T08:29:19.012Z,97726.50
2023-03-08T08:31:53.182Z,97742.34
2023-03-08T08:34:26.504Z,97738.35
2023-03-08T08:36:59.875Z,97747.13
2023-03-08T08:39:33.339Z,97754.91
2023-03-08T08:42:07.533Z,97748.50
2023-03-08T08:44:41.306Z,97731.12
2023-03-08T08:47:14.749Z,97736.16
2023-03-08T08:49:48.127Z,97749.20
2023-03-08T08:52:22.657Z,97739.20
2023-03-08T08:54:56.873Z,97750.12
2023-03-08T08:57:30.258Z,97750.86
2023-03-08T09:00:07.577Z,97749.38
2023-03-08T09:02:41.103Z,97738.48
2023-03-08T09:05:14.650Z,97743.83
2023-03-08T09:07:48.141Z,97740.40
2023-03-08T09:10:21.855Z,97742.94
2023-03-08T09:12:57.083Z,97707.74
2023-03-08T09:15:31.237Z,97718.12
2023-03-08T09:18:06.090Z,97707.02
2023-03-08T09:20:39.720Z,97701.25
2023-03-08T09:23:13.068Z,97710.47
2023-03-08T09:25:46.398Z,97687.38
2023-03-08T09:28:19.756Z,97689.14
2023-03-08T09:30:54.167Z,97680.67
2023-03-08T09:33:30.326Z,97684.41
2023-03-08T09:36:04.951Z,97708.69
2023-03-08T09:38:38.711Z,97691.59
2023-03-08T09:41:26.096Z,97677.15
2023-03-08T09:44:07.789Z,97656.09
2023-03-08T09:46:46.221Z,97659.73
2023-03-08T09:49:22.473Z,97668.77
2023-03-08T09:51:58.981Z,97653.95
2023-03-08T09:54:40.092Z,97638.70
2023-03-08T10:00:00.580Z,97622.89
2023-03-08T10:02:38.011Z,97610.05
2023-03-08T10:05:14.466Z,97606.91
2023-03-08T10:07:55.547Z,97609.14
2023-03-08T10:10:38.034Z,97609.63
2023-03-08T10:13:20.397Z,97587.66
2023-03-08T10:15:55.835Z,97579.89
2023-03-08T10:18:33.329Z,97575.47
2023-03-08T10:21:08.152Z,97585.73
2023-03-08T10:23:42.255Z,97573.09
2023-03-08T10:26:17.905Z,97573.92
2023-03-08T10:28:51.054Z,97575.47
2023-03-08T10:31:30.081Z,97562.95
2023-03-08T10:34:07.137Z,97570.88
2023-03-08T10:36:49.623Z,97575.27
2023-03-08T10:39:23.043Z,97521.67
2023-03-08T10:41:58.349Z,97523.00
2023-03-08T10:44:37.149Z,97536.86
2023-03-08T10:47:22.772Z,97530.90
2023-03-08T10:50:09.798Z,97536.92
2023-03-08T10:52:44.248Z,97523.21
2023-03-08T10:55:19.338Z,97526.86
2023-03-08T10:57:55.504Z,97500.14
2023-03-08T11:00:39.395Z,97511.70
2023-03-08T11:03:18.462Z,97508.73
2023-03-08T11:05:57.967Z,97503.30
2023-03-08T11:08:34.329Z,97496.14
2023-03-08T11:11:10.238Z,97483.13
2023-03-08T11:13:46.460Z,97476.03
2023-03-08T11:16:37.183Z,97484.30
2023-03-08T11:19:15.258Z,97470.42
2023-03-08T11:21:53.858Z,97494.19
2023-03-08T11:24:32.503Z,97471.75
2023-03-08T11:27:15.320Z,97473.70
2023-03-08T11:29:55.237Z,97471.11
2023-03-08T11:32:38.901Z,97459.41
2023-03-08T11:35:21.843Z,97428.91
2023-03-08T11:38:00.663Z,97448.39
2023-03-08T11:40:37.113Z,97432.52
2023-03-08T11:43:19.436Z,97438.52
2023-03-08T11:45:56.878Z,97417.36
2023-03-08T11:51:27.802Z,97395.56
2023-03-08T11:54:11.104Z,97407.27
2023-03-08T11:56:50.868Z,97403.01
2023-03-08T11:59:28.437Z,97412.20
2023-03-08T12:02:13.467Z,97404.53
2023-03-08T12:07:48.947Z,97397.00
2023-03-08T12:10:25.403Z,97395.20
2023-03-08T12:13:01.610Z,97382.33
2023-03-08T12:15:38.912Z,97371.81
2023-03-08T12:18:16.045Z,97368.52
2023-03-08T12:23:37.435Z,97343.08
2023-03-08T12:26:14.451Z,97346.41
2023-03-08T12:28:50.399Z,97319.36
2023-03-08T12:31:29.688Z,97319.36
2023-03-08T12:34:05.547Z,97335.47
2023-03-08T12:36:43.767Z,97325.91
2023-03-08T12:39:30.215Z,97325.09
2023-03-08T12:42:08.338Z,97322.91
2023-03-08T12:44:43.074Z,97305.63
2023-03-08T12:47:24.544Z,97294.28
2023-03-08T12:49:58.277Z,97307.14
2023-03-08T12:52:35.452Z,97284.83
2023-03-08T12:55:18.678Z,97287.45
2023-03-08T12:57:54.942Z,97289.21
2023-03-08T13:00:32.221Z,97289.77
2023-03-08T13:03:08.603Z,97282.98
2023-03-08T13:05:45.811Z,97263.69
2023-03-08T13:08:32.761Z,97270.69
2023-03-08T13:11:14.222Z,97263.09
2023-03-08T13:16:53.889Z,97244.38
2023-03-08T13:19:32.129Z,97237.62
2023-03-08T13:22:09.981Z,97247.35
2023-03-08T13:24:47.285Z,97234.39
2023-03-08T13:30:22.673Z,97217.30
2023-03-08T13:32:55.819Z,97207.72
2023-03-08T13:35:29.887Z,97220.52
2023-03-08T13:38:03.327Z,97198.88
2023-03-08T13:40:36.180Z,97202.10
2023-03-08T13:43:15.163Z,97194.47
2023-03-08T13:45:51.011Z,97189.41
2023-03-08T13:48:26.188Z,97184.16
2023-03-08T13:51:00.343Z,97177.20
2023-03-08T13:53:36.040Z,97165.26
2023-03-08T13:56:11.516Z,97160.09
2023-03-08T13:58:49.997Z,97153.88
2023-03-08T14:01:25.455Z,97133.52
2023-03-08T14:03:59.385Z,97142.70
2023-03-08T14:06:34.275Z,97142.67
2023-03-08T14:09:08.642Z,97131.64
2023-03-08T14:11:43.385Z,97142.61
2023-03-08T14:14:23.075Z,97119.63
2023-03-08T14:16:56.951Z,97118.70
2023-03-08T14:19:32.171Z,97112.68
2023-03-08T14:22:07.655Z,97115.27
2023-03-08T14:24:42.304Z,97099.09
2023-03-08T14:27:47.512Z,97074.33
2023-03-08T14:30:23.025Z,97082.80
2023-03-08T14:33:08.386Z,97085.36
2023-03-08T14:35:44.402Z,97080.25
2023-03-08T14:41:06.293Z,97046.39
2023-03-08T14:43:38.513Z,97052.97
2023-03-08T14:46:18.338Z,97032.57
2023-03-08T14:48:59.568Z,97058.02
2023-03-08T14:51:39.036Z,97029.91
2023-03-08T14:54:25.818Z,97029.95
2023-03-08T14:57:00.175Z,97019.56
2023-03-08T14:59:33.646Z,97022.83
2023-03-08T15:02:11.517Z,96998.11
2023-03-08T15:04:45.689Z,96999.00
2023-03-08T15:07:21.524Z,97000.69
2023-03-08T15:09:54.822Z,96992.13
2023-03-08T15:12:27.694Z,96968.32
2023-03-08T15:15:00.846Z,96962.16
2023-03-08T15:17:34.144Z,97004.75
2023-03-08T15:20:08.257Z,96998.73
2023-03-08T15:25:28.044Z,96988.02
2023-03-08T15:28:01.432Z,96989.35
2023-03-08T15:30:35.075Z,96997.25
2023-03-08T15:33:08.249Z,96951.84
2023-03-08T15:35:42.199Z,96934.05
2023-03-08T15:38:16.741Z,96959.59
2023-03-08T15:40:49.886Z,96950.16
2023-03-08T15:43:22.930Z,96941.56
2023-03-08T15:45:56.487Z,96919.59
2023-03-08T15:48:30.433Z,96910.17
2023-03-08T15:51:04.863Z,96925.49
2023-03-08T15:53:38.603Z,96923.73
2023-03-08T15:56:12.326Z,96922.03
2023-03-08T15:58:46.401Z,96927.17
2023-03-08T16:01:20.632Z,96938.33
2023-03-08T16:03:56.210Z,96941.00
2023-03-08T16:06:30.072Z,96960.67
2023-03-08T16:09:03.945Z,96942.87
2023-03-08T16:11:37.726Z,96927.30
2023-03-08T16:14:13.120Z,96929.02
2023-03-08T16:16:47.029Z,96946.13
2023-03-08T16:19:20.636Z,96944.45
2023-03-08T16:21:54.596Z,96944.53
2023-03-08T16:24:29.000Z,96946.30
2023-03-08T16:27:04.556Z,96915.56
2023-03-08T16:29:38.459Z,96913.86
2023-03-08T16:32:15.095Z,96878.00
2023-03-08T16:34:51.435Z,96888.39
2023-03-08T16:37:26.315Z,96896.80
2023-03-08T16:40:01.678Z,96887.46
2023-03-08T16:42:36.087Z,96882.34
2023-03-08T16:45:12.081Z,96879.89
2023-03-08T16:47:46.555Z,96880.69
2023-03-08T16:50:22.095Z,96870.47
2023-03-08T16:52:58.872Z,96857.66
2023-03-08T16:55:34.334Z,96875.69
2023-03-08T16:58:08.484Z,96839.02
2023-03-08T17:00:42.727Z,96843.30
2023-03-08T17:03:16.573Z,96836.55
2023-03-08T17:05:50.497Z,96835.73
2023-03-08T17:08:24.099Z,96832.33
2023-03-08T17:10:58.241Z,96805.95
2023-03-08T17:13:32.543Z,96827.32
2023-03-08T17:16:07.229Z,96815.43
2023-03-08T17:18:41.307Z,96810.36
2023-03-08T17:21:15.337Z,96818.86
2023-03-08T17:23:49.996Z,96779.61
2023-03-08T17:26:24.704Z,96802.70
2023-03-08T17:28:58.519Z,96793.33
2023-03-08T17:31:32.555Z,96787.33
2023-03-08T17:34:06.681Z,96798.56
2023-03-08T17:36:41.101Z,96792.53
2023-03-08T17:39:14.996Z,96807.98
2023-03-08T17:41:49.171Z,96812.30
2023-03-08T17:44:23.041Z,96782.44
2023-03-08T17:46:56.685Z,96771.34
2023-03-08T17:49:30.357Z,96776.52
2023-03-08T17:52:04.399Z,96770.58
2023-03-08T17:54:38.296Z,96786.86
2023-03-08T17:57:11.905Z,96779.18
2023-03-08T17:59:47.546Z,96757.03
2023-03-08T18:05:04.315Z,96791.37
2023-03-08T18:07:41.262Z,96737.38
2023-03-08T18:10:15.538Z,96772.50
2023-03-08T18:12:49.624Z,96762.24
2023-03-08T18:15:24.124Z,96771.69
2023-03-08T18:17:57.776Z,96790.48
2023-03-08T18:20:31.923Z,96763.13
2023-03-08T18:23:07.340Z,96786.29
2023-03-08T18:25:41.637Z,96769.13
2023-03-08T18:28:17.986Z,96769.11
2023-03-08T18:30:52.305Z,96762.26
2023-03-08T18:33:26.283Z,96736.59
2023-03-08T18:36:00.545Z,96727.20
2023-03-08T18:38:34.350Z,96736.58
2023-03-08T18:41:15.791Z,96751.14
2023-03-08T18:43:48.803Z,96757.13
2023-03-08T18:46:26.444Z,96749.42
2023-03-08T18:49:07.338Z,96764.87
2023-03-08T18:51:46.616Z,96804.20
2023-03-08T18:54:21.429Z,96716.94
2023-03-08T18:56:56.605Z,96768.28
2023-03-08T18:59:31.963Z,96761.41
2023-03-08T19:02:05.561Z,96772.57
2023-03-08T19:04:42.531Z,96746.13
2023-03-08T19:07:15.643Z,96792.39
2023-03-08T19:09:49.245Z,96783.84
2023-03-08T19:12:22.477Z,96790.66
2023-03-08T19:14:55.731Z,96777.81
2023-03-08T19:17:29.008Z,96772.70
2023-03-08T19:20:02.508Z,96754.72
2023-03-08T19:22:36.654Z,96752.99
2023-03-08T19:25:11.921Z,96749.58
2023-03-08T19:27:45.517Z,96753.87
2023-03-08T19:30:22.513Z,96796.64
2023-03-08T19:32:56.850Z,96774.42
2023-03-08T19:35:30.138Z,96754.72
2023-03-08T19:38:03.420Z,96756.45
2023-03-08T19:40:38.977Z,96765.00
2023-03-08T19:43:12.540Z,96754.73
2023-03-08T19:45:51.795Z,96783.02
2023-03-08T19:48:25.116Z,96770.19
2023-03-08T19:50:58.477Z,96760.80
2023-03-08T19:53:31.821Z,96765.09
2023-03-08T19:56:05.189Z,96768.55
2023-03-08T19:58:38.232Z,96776.26
2023-03-08T20:01:13.315Z,96749.77
2023-03-08T20:03:48.443Z,96780.56
2023-03-08T20:06:26.674Z,96770.28
2023-03-08T20:09:00.730Z,96785.64
2023-03-08T20:11:34.270Z,96786.48
2023-03-08T20:14:08.492Z,96799.27
2023-03-08T20:16:41.899Z,96791.50
2023-03-08T20:19:15.438Z,96790.60
2023-03-08T20:21:49.794Z,96800.86
2023-03-08T20:24:24.353Z,96787.97
2023-03-08T20:26:59.451Z,96819.55
2023-03-08T20:29:32.819Z,96810.91
2023-03-08T20:32:08.658Z,96804.84
2023-03-08T20:34:42.077Z,96823.61
2023-03-08T20:37:15.375Z,96844.87
2023-03-08T20:39:50.347Z,96804.61
2023-03-08T20:42:23.895Z,96800.31
2023-03-08T20:44:57.089Z,96813.96
2023-03-08T20:47:30.356Z,96810.45
2023-03-08T20:50:04.182Z,96822.30
2023-03-08T20:52:36.544Z,96804.27
2023-03-08T20:55:11.066Z,96816.16
2023-03-08T20:57:45.014Z,96816.12
2023-03-08T21:00:19.686Z,96813.48
2023-03-08T21:02:55.597Z,96821.08
2023-03-08T21:05:29.398Z,96808.23
2023-03-08T21:08:03.411Z,96817.61
2023-03-08T21:10:37.996Z,96804.70
2023-03-08T21:15:55.457Z,96812.46
2023-03-08T21:18:29.252Z,96810.61
2023-03-08T21:21:03.356Z,96806.29
2023-03-08T21:23:37.000Z,96813.11
2023-03-08T21:26:14.040Z,96822.47
2023-03-08T21:28:47.394Z,96823.28
2023-03-08T21:31:21.547Z,96821.48
2023-03-08T21:33:54.870Z,96832.53
2023-03-08T21:36:27.841Z,96853.03
2023-03-08T21:39:02.073Z,96825.75
2023-03-08T21:41:37.779Z,96834.34
2023-03-08T21:44:14.838Z,96841.92
2023-03-08T21:46:49.019Z,96845.31
2023-03-08T21:49:25.294Z,96852.92
2023-03-08T21:52:03.486Z,96846.86
2023-03-08T21:54:37.189Z,96870.73
2023-03-08T21:57:13.524Z,96853.67
2023-03-08T21:59:47.411Z,96841.70
2023-03-08T22:02:23.097Z,96869.03
2023-03-08T22:05:00.005Z,96848.50
2023-03-08T22:07:36.025Z,96862.95
2023-03-08T22:10:13.945Z,96860.28
2023-03-08T22:12:48.677Z,96865.39
2023-03-08T22:15:22.175Z,96854.28
2023-03-08T22:17:55.765Z,96880.69
2023-03-08T22:20:35.165Z,96871.22
2023-03-08T22:23:09.103Z,96871.22
2023-03-08T22:25:42.557Z,96875.44
2023-03-08T22:28:16.360Z,96885.66
2023-03-08T22:30:51.468Z,96878.77
2023-03-08T22:33:24.839Z,96883.84
2023-03-08T22:35:58.675Z,96879.59
2023-03-08T22:38:33.626Z,96885.62
2023-03-08T22:41:13.518Z,96905.19
2023-03-08T22:43:47.582Z,96891.56
2023-03-08T22:46:23.070Z,96890.63
2023-03-08T22:48:57.846Z,96888.85
2023-03-08T22:51:31.432Z,96907.55
2023-03-08T22:54:07.321Z,96907.49
2023-03-08T22:56:40.666Z,96921.90
2023-03-08T22:59:14.376Z,96907.47
2023-03-08T23:01:48.162Z,96921.05
2023-03-08T23:04:22.068Z,96917.64
2023-03-08T23:06:55.411Z,96912.47
2023-03-08T23:09:28.880Z,96913.33
2023-03-08T23:12:05.003Z,96938.94
2023-03-08T23:14:38.494Z,96927.02
2023-03-08T23:17:11.973Z,96936.56
2023-03-08T23:19:45.267Z,96928.10
2023-03-08T23:22:19.099Z,96936.63
2023-03-08T23:24:52.583Z,96965.63
2023-03-08T23:27:26.088Z,96943.50
2023-03-08T23:29:59.603Z,96939.22
2023-03-08T23:32:34.997Z,96937.53
2023-03-08T23:35:11.110Z,96932.33
2023-03-08T23:37:46.166Z,96933.95
2023-03-08T23:40:20.521Z,96930.57
2023-03-08T23:42:54.450Z,96957.03
2023-03-08T23:45:28.114Z,96920.36
2023-03-08T23:48:03.361Z,96948.56
2023-03-08T23:50:39.463Z,96934.78
2023-03-08T23:53:13.536Z,96904.94
2023-03-08T23:55:47.412Z,96956.09
2023-03-08T23:58:21.115Z,96926.99
